createdAt,value
2019-02-26T00:02:19.787Z,74.50
2019-02-26T00:04:53.504Z,74.70
2019-02-26T00:07:23.532Z,75.10
2019-02-26T00:09:53.584Z,76.10
2019-02-26T00:12:24.181Z,75.80
2019-02-26T00:14:55.030Z,76.00
2019-02-26T00:17:25.388Z,76.20
2019-02-26T00:19:54.577Z,76.50
2019-02-26T00:22:23.860Z,76.70
2019-02-26T00:24:53.316Z,77.10
2019-02-26T00:27:23.445Z,77.30
2019-02-26T00:29:56.062Z,77.30
2019-02-26T00:32:25.260Z,77.50
2019-02-26T00:34:55.705Z,77.70
2019-02-26T00:37:26.372Z,78.00
2019-02-26T00:39:56.511Z,78.40
2019-02-26T00:42:28.660Z,78.50
2019-02-26T00:45:00.947Z,78.80
2019-02-26T00:47:31.868Z,79.30
2019-02-26T00:50:00.517Z,79.60
2019-02-26T00:52:30.472Z,79.70
2019-02-26T00:55:03.051Z,80.10
2019-02-26T00:57:33.395Z,80.40
2019-02-26T01:00:03.479Z,80.70
2019-02-26T01:02:33.876Z,81.20
2019-02-26T01:05:04.016Z,81.10
2019-02-26T01:07:34.284Z,81.40
2019-02-26T01:10:03.564Z,81.60
2019-02-26T01:12:34.834Z,81.80
2019-02-26T01:15:04.935Z,81.80
2019-02-26T01:17:35.737Z,82.00
2019-02-26T01:20:06.903Z,82.20
2019-02-26T01:22:37.767Z,82.30
2019-02-26T01:25:07.542Z,82.50
2019-02-26T01:27:37.082Z,82.80
2019-02-26T01:30:07.179Z,83.20
2019-02-26T01:32:36.279Z,83.40
2019-02-26T01:35:05.923Z,83.70
2019-02-26T01:37:36.714Z,83.90
2019-02-26T01:40:09.419Z,84.40
2019-02-26T01:42:38.068Z,84.40
2019-02-26T01:45:08.269Z,84.60
2019-02-26T01:47:37.344Z,85.40
2019-02-26T01:50:09.353Z,84.80
2019-02-26T01:52:38.908Z,84.90
2019-02-26T01:55:09.270Z,85.50
2019-02-26T01:57:42.675Z,85.60
2019-02-26T02:00:13.408Z,85.60
2019-02-26T02:02:43.457Z,85.80
2019-02-26T02:05:13.894Z,85.80
2019-02-26T02:07:46.069Z,85.90
2019-02-26T02:10:14.418Z,86.00
2019-02-26T02:12:43.477Z,86.30
2019-02-26T02:15:14.924Z,86.40
2019-02-26T02:17:43.713Z,86.50
2019-02-26T02:20:15.692Z,86.60
2019-02-26T02:22:44.515Z,86.70
2019-02-26T02:25:14.280Z,86.80
2019-02-26T02:27:47.583Z,86.90
2019-02-26T02:30:22.375Z,87.10
2019-02-26T02:32:50.500Z,87.40
2019-02-26T02:35:19.147Z,87.30
2019-02-26T02:37:50.777Z,87.30
2019-02-26T02:40:19.712Z,87.50
2019-02-26T02:42:49.395Z,87.50
2019-02-26T02:45:21.105Z,87.60
2019-02-26T02:47:54.844Z,87.90
2019-02-26T02:50:20.166Z,88.00
2019-02-26T02:52:50.891Z,88.30
2019-02-26T02:55:20.267Z,88.40
2019-02-26T02:57:52.656Z,88.70
2019-02-26T03:00:21.219Z,88.70
2019-02-26T03:02:53.092Z,88.80
2019-02-26T03:05:22.220Z,89.10
2019-02-26T03:07:53.485Z,89.20
2019-02-26T03:10:26.101Z,89.40
2019-02-26T03:12:55.284Z,89.70
2019-02-26T03:15:26.548Z,89.60
2019-02-26T03:17:54.936Z,89.90
2019-02-26T03:20:28.658Z,90.00
2019-02-26T03:22:57.824Z,90.10
2019-02-26T03:25:29.009Z,90.20
2019-02-26T03:27:57.908Z,90.30
2019-02-26T03:30:32.899Z,90.40
2019-02-26T03:33:03.951Z,90.40
2019-02-26T03:35:28.912Z,90.50
2019-02-26T03:38:00.670Z,90.60
2019-02-26T03:40:32.389Z,90.70
2019-02-26T03:43:01.454Z,90.80
2019-02-26T03:45:31.093Z,90.80
2019-02-26T03:48:00.159Z,90.90
2019-02-26T03:50:29.097Z,91.00
2019-02-26T03:52:58.304Z,91.00
2019-02-26T03:55:27.320Z,91.10
2019-02-26T03:57:59.140Z,91.40
2019-02-26T04:00:27.700Z,91.10
2019-02-26T04:02:57.068Z,91.20
2019-02-26T04:05:26.111Z,91.20
2019-02-26T04:07:58.886Z,91.20
2019-02-26T04:10:26.323Z,91.30
2019-02-26T04:12:58.079Z,91.30
2019-02-26T04:15:27.922Z,91.30
2019-02-26T04:17:56.954Z,91.40
2019-02-26T04:20:27.730Z,91.30
2019-02-26T04:22:57.211Z,91.40
2019-02-26T04:25:36.051Z,91.40
2019-02-26T04:28:11.159Z,91.40
2019-02-26T04:31:21.077Z,91.50
2019-02-26T04:34:17.244Z,91.60
2019-02-26T04:37:24.751Z,91.70
2019-02-26T04:40:23.536Z,91.70
2019-02-26T04:43:36.148Z,91.90
2019-02-26T04:47:06.008Z,92.10
2019-02-26T04:49:38.332Z,92.10
2019-02-26T04:52:08.563Z,92.20
2019-02-26T04:54:39.593Z,92.20
2019-02-26T04:57:07.983Z,92.20
2019-02-26T04:59:38.700Z,92.10
2019-02-26T05:02:08.184Z,92.20
2019-02-26T05:04:39.466Z,92.20
2019-02-26T05:07:12.758Z,92.30
2019-02-26T05:09:38.842Z,92.20
2019-02-26T05:12:30.301Z,92.20
2019-02-26T05:14:58.048Z,92.30
2019-02-26T05:17:30.235Z,92.30
2019-02-26T05:19:58.062Z,92.30
2019-02-26T05:22:30.107Z,92.30
2019-02-26T05:24:58.540Z,92.20
2019-02-26T05:27:27.673Z,92.30
2019-02-26T05:29:56.872Z,92.30
2019-02-26T05:32:29.437Z,92.30
2019-02-26T05:34:57.385Z,92.20
2019-02-26T05:37:29.261Z,92.40
2019-02-26T05:39:58.022Z,92.40
2019-02-26T05:42:27.426Z,92.50
2019-02-26T05:44:59.676Z,92.60
2019-02-26T05:47:27.335Z,92.50
2019-02-26T05:49:59.411Z,92.60
2019-02-26T05:52:29.975Z,92.60
2019-02-26T05:54:58.945Z,92.70
2019-02-26T05:57:32.480Z,92.90
2019-02-26T05:59:59.075Z,92.70
2019-02-26T06:02:28.135Z,92.80
2019-02-26T06:04:57.141Z,92.90
2019-02-26T06:07:28.099Z,93.00
2019-02-26T06:09:59.246Z,93.00
2019-02-26T06:12:32.385Z,93.00
2019-02-26T06:15:04.214Z,93.10
2019-02-26T06:17:30.191Z,93.20
2019-02-26T06:20:11.016Z,93.30
2019-02-26T06:22:40.172Z,93.40
2019-02-26T06:25:14.034Z,93.70
2019-02-26T06:27:41.010Z,93.70
2019-02-26T06:30:12.204Z,93.70
2019-02-26T06:32:44.361Z,93.90
2019-02-26T06:35:16.074Z,93.60
2019-02-26T06:37:45.192Z,93.70
2019-02-26T06:40:14.543Z,93.80
2019-02-26T06:42:43.606Z,93.40
2019-02-26T06:45:13.900Z,92.80
2019-02-26T06:47:45.647Z,92.80
2019-02-26T06:50:17.930Z,92.80
2019-02-26T06:52:47.937Z,92.30
2019-02-26T06:55:17.040Z,92.10
2019-02-26T06:57:47.148Z,92.30
2019-02-26T07:00:18.677Z,92.10
2019-02-26T07:02:47.551Z,91.90
2019-02-26T07:05:16.824Z,92.10
2019-02-26T07:07:46.217Z,91.60
2019-02-26T07:10:18.433Z,91.40
2019-02-26T07:12:48.130Z,90.60
2019-02-26T07:15:16.748Z,89.50
2019-02-26T07:17:46.270Z,89.10
2019-02-26T07:20:15.828Z,89.40
2019-02-26T07:22:47.232Z,89.40
2019-02-26T07:25:18.535Z,89.20
2019-02-26T07:27:47.039Z,88.80
2019-02-26T07:30:16.250Z,88.60
2019-02-26T07:32:48.089Z,88.70
2019-02-26T07:35:16.870Z,88.20
2019-02-26T07:37:45.999Z,88.60
2019-02-26T07:40:16.124Z,89.30
2019-02-26T07:42:48.663Z,89.20
2019-02-26T07:45:19.758Z,87.40
2019-02-26T07:47:49.106Z,87.20
2019-02-26T07:50:19.127Z,87.30
2019-02-26T07:52:50.283Z,87.40
2019-02-26T07:55:19.038Z,87.70
2019-02-26T07:57:50.683Z,88.00
2019-02-26T08:00:20.853Z,87.30
2019-02-26T08:02:52.055Z,87.60
2019-02-26T08:05:23.741Z,87.30
2019-02-26T08:07:55.813Z,87.70
2019-02-26T08:10:23.404Z,88.10
2019-02-26T08:12:52.449Z,87.80
2019-02-26T08:15:21.503Z,88.00
2019-02-26T08:17:55.245Z,87.90
2019-02-26T08:20:21.235Z,87.90
2019-02-26T08:22:51.652Z,88.00
2019-02-26T08:25:21.486Z,88.20
2019-02-26T08:27:52.147Z,88.00
2019-02-26T08:30:24.176Z,87.80
2019-02-26T08:32:54.255Z,87.70
2019-02-26T08:35:23.168Z,87.50
2019-02-26T08:37:52.565Z,87.40
2019-02-26T08:40:21.647Z,87.10
2019-02-26T08:42:50.614Z,86.60
2019-02-26T08:45:22.420Z,86.50
2019-02-26T08:47:50.608Z,86.40
2019-02-26T08:50:19.742Z,85.60
2019-02-26T08:52:52.303Z,85.10
2019-02-26T08:55:22.236Z,84.00
2019-02-26T08:57:51.969Z,84.20
2019-02-26T09:00:22.362Z,83.90
2019-02-26T09:02:53.914Z,83.20
2019-02-26T09:05:26.303Z,83.10
2019-02-26T09:07:56.135Z,82.80
2019-02-26T09:10:25.206Z,82.40
2019-02-26T09:12:54.561Z,82.20
2019-02-26T09:15:23.999Z,82.80
2019-02-26T09:17:53.333Z,81.90
2019-02-26T09:20:22.496Z,81.30
2019-02-26T09:22:53.610Z,80.60
2019-02-26T09:25:25.505Z,80.30
2019-02-26T09:27:53.483Z,80.10
2019-02-26T09:30:22.464Z,80.20
2019-02-26T09:32:52.573Z,80.10
2019-02-26T09:35:25.256Z,79.30
2019-02-26T09:37:55.598Z,78.80
2019-02-26T09:40:26.052Z,78.50
2019-02-26T09:42:56.755Z,78.00
2019-02-26T09:45:28.654Z,77.50
2019-02-26T09:47:57.959Z,76.90
2019-02-26T09:50:27.229Z,76.60
2019-02-26T09:52:58.939Z,75.90
2019-02-26T09:55:27.032Z,75.80
2019-02-26T09:57:56.285Z,75.50
2019-02-26T10:00:26.964Z,75.00
2019-02-26T10:02:56.504Z,74.70
2019-02-26T10:05:25.838Z,74.60
2019-02-26T10:07:57.997Z,74.00
2019-02-26T10:10:29.149Z,73.80
2019-02-26T10:12:59.471Z,73.00
2019-02-26T10:15:27.733Z,72.60
2019-02-26T10:17:58.897Z,72.20
2019-02-26T10:20:29.562Z,71.50
2019-02-26T10:23:00.669Z,71.10
2019-02-26T10:25:31.951Z,70.40
2019-02-26T10:28:03.144Z,70.00
2019-02-26T10:30:33.397Z,69.50
2019-02-26T10:33:02.760Z,69.10
2019-02-26T10:35:33.509Z,68.20
2019-02-26T10:38:05.827Z,67.80
2019-02-26T10:40:37.087Z,67.20
2019-02-26T10:43:05.403Z,66.60
2019-02-26T10:45:38.671Z,66.50
2019-02-26T10:48:06.049Z,66.10
2019-02-26T10:50:37.292Z,66.10
2019-02-26T10:53:10.305Z,64.90
2019-02-26T10:55:39.357Z,64.40
2019-02-26T10:58:12.134Z,64.20
2019-02-26T11:00:39.331Z,63.80
2019-02-26T11:03:09.174Z,63.50
2019-02-26T11:05:40.604Z,63.20
2019-02-26T11:08:10.394Z,63.30
2019-02-26T11:10:42.003Z,62.70
2019-02-26T11:13:12.448Z,62.70
2019-02-26T11:15:41.050Z,61.60
2019-02-26T11:18:11.749Z,61.00
2019-02-26T11:20:40.913Z,60.50
2019-02-26T11:23:13.275Z,60.20
2019-02-26T11:25:40.624Z,60.20
2019-02-26T11:28:12.242Z,59.80
2019-02-26T11:30:40.888Z,59.50
2019-02-26T11:33:11.324Z,58.90
2019-02-26T11:35:42.122Z,58.50
2019-02-26T11:38:14.032Z,58.40
2019-02-26T11:40:42.683Z,58.00
2019-02-26T11:43:14.500Z,57.60
2019-02-26T11:45:44.526Z,57.30
2019-02-26T11:48:13.775Z,57.20
2019-02-26T11:50:44.532Z,57.10
2019-02-26T11:53:13.688Z,56.90
2019-02-26T11:55:42.758Z,56.60
2019-02-26T11:58:13.659Z,56.20
2019-02-26T12:00:53.982Z,55.80
2019-02-26T12:03:27.205Z,55.70
2019-02-26T12:05:56.689Z,55.50
2019-02-26T12:08:25.884Z,55.50
2019-02-26T12:10:58.016Z,55.60
2019-02-26T12:13:27.741Z,55.50
2019-02-26T12:15:57.032Z,55.20
2019-02-26T12:18:26.760Z,54.80
2019-02-26T12:20:55.937Z,54.30
2019-02-26T12:23:25.078Z,53.70
2019-02-26T12:25:55.521Z,53.40
2019-02-26T12:28:26.036Z,53.40
2019-02-26T12:30:58.391Z,53.10
2019-02-26T12:33:26.700Z,52.90
2019-02-26T12:35:58.978Z,52.70
2019-02-26T12:38:26.882Z,52.30
2019-02-26T12:40:56.041Z,52.50
2019-02-26T12:43:25.336Z,52.20
2019-02-26T12:45:56.091Z,52.10
2019-02-26T12:48:25.710Z,51.10
2019-02-26T12:50:56.124Z,51.10
2019-02-26T12:53:26.416Z,50.80
2019-02-26T12:55:56.656Z,50.60
2019-02-26T12:58:28.028Z,50.50
2019-02-26T13:00:57.198Z,50.30
2019-02-26T13:03:26.636Z,50.00
2019-02-26T13:05:55.700Z,49.70
2019-02-26T13:08:24.829Z,49.60
2019-02-26T13:11:05.186Z,49.10
2019-02-26T13:13:34.226Z,49.00
2019-02-26T13:16:04.114Z,48.90
2019-02-26T13:18:33.931Z,48.90
2019-02-26T13:21:08.890Z,48.70
2019-02-26T13:23:34.029Z,48.60
2019-02-26T13:26:03.857Z,48.40
2019-02-26T13:28:33.858Z,48.40
2019-02-26T13:31:05.022Z,48.30
2019-02-26T13:33:37.546Z,48.30
2019-02-26T13:36:05.854Z,48.30
2019-02-26T13:38:44.113Z,48.40
2019-02-26T13:43:37.781Z,48.10
2019-02-26T13:46:07.070Z,48.00
2019-02-26T13:48:36.259Z,48.00
2019-02-26T13:51:05.415Z,47.90
2019-02-26T13:53:35.025Z,48.10
2019-02-26T13:56:04.107Z,48.00
2019-02-26T13:58:33.770Z,48.20
2019-02-26T14:01:02.974Z,47.70
2019-02-26T14:03:32.097Z,47.70
2019-02-26T14:06:01.573Z,47.70
2019-02-26T14:08:31.012Z,47.60
2019-02-26T14:11:02.587Z,47.50
2019-02-26T14:13:32.535Z,47.50
2019-02-26T14:16:01.944Z,47.30
2019-02-26T14:18:30.861Z,47.30
2019-02-26T14:21:02.409Z,47.20
2019-02-26T14:23:34.887Z,47.10
2019-02-26T14:26:05.243Z,47.00
2019-02-26T14:28:34.721Z,47.00
2019-02-26T14:31:04.417Z,46.80
2019-02-26T14:33:38.781Z,46.60
2019-02-26T14:36:09.691Z,46.40
2019-02-26T14:38:38.855Z,46.50
2019-02-26T14:41:08.575Z,46.70
2019-02-26T14:43:37.766Z,46.70
2019-02-26T14:46:06.973Z,46.60
2019-02-26T14:48:36.426Z,46.60
2019-02-26T14:51:05.584Z,46.60
2019-02-26T14:53:34.788Z,46.60
2019-02-26T14:56:04.726Z,47.00
2019-02-26T14:58:34.013Z,46.90
2019-02-26T15:01:04.407Z,46.80
2019-02-26T15:03:33.465Z,46.90
2019-02-26T15:06:02.955Z,46.60
2019-02-26T15:08:32.122Z,46.60
2019-02-26T15:11:01.327Z,46.70
2019-02-26T15:13:34.326Z,46.80
2019-02-26T15:16:03.529Z,46.80
2019-02-26T15:18:35.673Z,46.80
2019-02-26T15:21:03.928Z,46.90
2019-02-26T15:23:36.932Z,46.70
2019-02-26T15:26:06.450Z,46.70
2019-02-26T15:28:36.421Z,46.70
2019-02-26T15:31:06.143Z,46.70
2019-02-26T15:33:35.533Z,46.30
2019-02-26T15:36:08.655Z,45.90
2019-02-26T15:38:38.549Z,45.90
2019-02-26T15:41:09.615Z,46.30
2019-02-26T15:43:38.781Z,46.80
2019-02-26T15:46:08.025Z,47.10
2019-02-26T15:48:37.341Z,47.40
2019-02-26T15:51:14.092Z,47.50
2019-02-26T15:53:37.421Z,47.20
2019-02-26T15:56:06.756Z,46.70
2019-02-26T15:58:35.675Z,46.70
2019-02-26T16:01:08.875Z,47.00
2019-02-26T16:03:38.155Z,47.00
2019-02-26T16:06:07.354Z,47.00
2019-02-26T16:08:38.484Z,47.50
2019-02-26T16:11:07.246Z,47.70
2019-02-26T16:13:36.536Z,48.20
2019-02-26T16:16:05.580Z,48.50
2019-02-26T16:18:35.058Z,48.80
2019-02-26T16:21:04.259Z,49.00
2019-02-26T16:23:34.075Z,49.30
2019-02-26T16:26:05.592Z,49.70
2019-02-26T16:28:34.005Z,49.80
2019-02-26T16:31:04.579Z,50.20
2019-02-26T16:33:34.195Z,50.30
2019-02-26T16:36:03.395Z,50.50
2019-02-26T16:38:32.663Z,50.60
2019-02-26T16:41:02.839Z,50.80
2019-02-26T16:43:32.864Z,50.90
2019-02-26T16:46:01.983Z,51.10
2019-02-26T16:48:31.065Z,51.30
2019-02-26T16:51:00.351Z,52.10
2019-02-26T16:53:33.512Z,51.70
2019-02-26T16:56:00.283Z,51.90
2019-02-26T16:58:29.609Z,52.20
2019-02-26T17:00:59.206Z,52.50
2019-02-26T17:03:28.478Z,52.70
2019-02-26T17:05:57.470Z,52.90
2019-02-26T17:08:26.645Z,53.10
2019-02-26T17:10:55.755Z,53.30
2019-02-26T17:13:24.698Z,53.50
2019-02-26T17:15:53.872Z,53.80
2019-02-26T17:18:22.841Z,54.10
2019-02-26T17:20:56.437Z,54.20
2019-02-26T17:23:23.529Z,54.50
2019-02-26T17:25:53.295Z,54.70
2019-02-26T17:28:22.337Z,55.00
2019-02-26T17:30:58.267Z,55.00
2019-02-26T17:33:28.002Z,55.20
2019-02-26T17:35:57.138Z,55.50
2019-02-26T17:38:28.605Z,55.60
2019-02-26T17:40:58.162Z,55.90
2019-02-26T17:43:27.164Z,56.10
2019-02-26T17:45:56.717Z,56.30
2019-02-26T17:48:25.726Z,56.60
2019-02-26T17:50:55.234Z,56.70
2019-02-26T17:53:27.673Z,56.90
2019-02-26T17:55:55.672Z,57.10
2019-02-26T17:58:25.341Z,57.40
2019-02-26T18:00:56.174Z,57.50
2019-02-26T18:03:25.749Z,57.70
2019-02-26T18:05:55.658Z,57.90
2019-02-26T18:08:24.698Z,58.20
2019-02-26T18:10:54.038Z,58.30
2019-02-26T18:13:23.535Z,58.30
2019-02-26T18:15:56.123Z,58.50
2019-02-26T18:18:24.095Z,58.50
2019-02-26T18:20:53.173Z,58.60
2019-02-26T18:23:22.777Z,58.60
2019-02-26T18:25:51.906Z,58.80
2019-02-26T18:28:21.217Z,58.70
2019-02-26T18:30:50.797Z,58.70
2019-02-26T18:33:19.813Z,58.90
2019-02-26T18:35:49.025Z,59.00
2019-02-26T18:38:18.347Z,59.80
2019-02-26T18:40:47.781Z,59.20
2019-02-26T18:43:17.291Z,59.70
2019-02-26T18:45:46.595Z,59.90
2019-02-26T18:48:15.944Z,60.00
2019-02-26T18:50:47.103Z,60.20
2019-02-26T18:53:16.772Z,60.10
2019-02-26T18:55:52.535Z,60.30
2019-02-26T18:58:22.199Z,60.50
2019-02-26T19:00:51.561Z,60.70
2019-02-26T19:03:20.941Z,60.90
2019-02-26T19:05:53.743Z,61.10
2019-02-26T19:08:21.883Z,61.30
2019-02-26T19:10:53.332Z,61.60
2019-02-26T19:13:22.652Z,61.70
2019-02-26T19:15:52.626Z,61.80
2019-02-26T19:18:22.224Z,62.00
2019-02-26T19:20:51.530Z,62.30
2019-02-26T19:23:21.180Z,62.70
2019-02-26T19:25:50.327Z,62.90
2019-02-26T19:28:19.454Z,62.80
2019-02-26T19:30:48.522Z,62.80
2019-02-26T19:33:18.708Z,62.80
2019-02-26T19:35:49.374Z,63.30
2019-02-26T19:38:18.460Z,63.30
2019-02-26T19:40:47.955Z,63.60
2019-02-26T19:43:17.555Z,63.60
2019-02-26T19:45:48.953Z,64.00
2019-02-26T19:48:18.203Z,64.10
2019-02-26T19:50:48.780Z,64.50
2019-02-26T19:53:18.092Z,64.90
2019-02-26T19:55:49.681Z,64.90
2019-02-26T19:58:18.232Z,65.30
2019-02-26T20:00:47.929Z,65.80
2019-02-26T20:03:18.178Z,66.30
2019-02-26T20:05:51.157Z,66.10
2019-02-26T20:08:22.949Z,66.10
2019-02-26T20:10:54.170Z,66.10
2019-02-26T20:13:23.901Z,66.10
2019-02-26T20:15:54.875Z,66.10
2019-02-26T20:18:26.173Z,66.30
2019-02-26T20:20:55.669Z,66.50
2019-02-26T20:23:25.468Z,66.70
2019-02-26T20:25:54.880Z,67.00
2019-02-26T20:28:23.857Z,67.30
2019-02-26T20:30:53.394Z,67.40
2019-02-26T20:33:22.512Z,67.40
2019-02-26T20:35:51.732Z,67.40
2019-02-26T20:38:22.550Z,67.50
2019-02-26T20:40:52.875Z,67.60
2019-02-26T20:43:30.989Z,68.00
2019-02-26T20:46:00.327Z,68.40
2019-02-26T20:48:36.558Z,68.90
2019-02-26T20:51:03.898Z,69.30
2019-02-26T20:53:33.514Z,70.00
2019-02-26T20:56:04.507Z,70.30
2019-02-26T20:58:33.609Z,71.30
2019-02-26T21:01:03.607Z,71.50
2019-02-26T21:03:33.026Z,72.10
2019-02-26T21:06:02.114Z,72.30
2019-02-26T21:08:31.590Z,72.40
2019-02-26T21:11:01.814Z,72.70
2019-02-26T21:13:34.685Z,73.40
2019-02-26T21:16:01.929Z,73.60
2019-02-26T21:18:31.259Z,73.90
2019-02-26T21:21:00.985Z,74.30
2019-02-26T21:23:30.436Z,74.60
2019-02-26T21:25:59.696Z,75.00
2019-02-26T21:28:33.721Z,75.40
2019-02-26T21:31:03.449Z,75.60
2019-02-26T21:33:33.065Z,76.60
2019-02-26T21:36:04.808Z,76.10
2019-02-26T21:38:34.160Z,76.60
2019-02-26T21:41:03.306Z,77.10
2019-02-26T21:43:35.485Z,77.40
2019-02-26T21:46:05.132Z,77.60
2019-02-26T21:48:36.321Z,78.00
2019-02-26T21:51:06.770Z,78.30
2019-02-26T21:53:35.952Z,78.50
2019-02-26T21:56:05.464Z,78.90
2019-02-26T21:58:40.834Z,79.40
2019-02-26T22:01:11.715Z,79.80
2019-02-26T22:03:41.712Z,80.00
2019-02-26T22:06:16.571Z,80.20
2019-02-26T22:08:45.622Z,80.50
2019-02-26T22:11:15.792Z,80.90
2019-02-26T22:13:47.810Z,81.10
2019-02-26T22:16:17.719Z,81.40
2019-02-26T22:18:48.374Z,81.60
2019-02-26T22:21:19.035Z,82.00
2019-02-26T22:23:49.009Z,82.30
2019-02-26T22:26:20.079Z,82.90
2019-02-26T22:28:50.039Z,83.10
2019-02-26T22:31:19.486Z,83.50
2019-02-26T22:33:48.880Z,83.80
2019-02-26T22:36:18.397Z,84.00
2019-02-26T22:38:50.164Z,84.30
2019-02-26T22:41:19.148Z,84.50
2019-02-26T22:43:49.457Z,84.60
2019-02-26T22:46:18.662Z,84.90
2019-02-26T22:48:48.128Z,85.20
2019-02-26T22:51:18.661Z,85.50
2019-02-26T22:53:50.531Z,85.90
2019-02-26T22:56:21.897Z,86.10
2019-02-26T22:58:50.968Z,86.20
2019-02-26T23:01:36.666Z,86.60
2019-02-26T23:04:08.359Z,86.80
2019-02-26T23:06:37.853Z,87.20
2019-02-26T23:09:09.652Z,87.50
2019-02-26T23:11:39.045Z,87.60
2019-02-26T23:14:09.038Z,88.00
2019-02-26T23:16:38.534Z,88.30
2019-02-26T23:19:08.604Z,88.40
2019-02-26T23:21:37.900Z,88.70
2019-02-26T23:24:07.670Z,89.10
2019-02-26T23:26:41.875Z,89.20
2019-02-26T23:29:08.212Z,89.30
2019-02-26T23:31:37.313Z,89.70
2019-02-26T23:34:06.803Z,90.00
2019-02-26T23:36:36.578Z,90.10
2019-02-26T23:39:07.447Z,90.20
2019-02-26T23:41:36.847Z,90.30
2019-02-26T23:44:05.994Z,90.40
2019-02-26T23:46:35.283Z,90.50
2019-02-26T23:49:05.323Z,90.60
2019-02-26T23:51:34.433Z,90.60
2019-02-26T23:54:04.675Z,90.70
2019-02-26T23:56:34.761Z,90.80
2019-02-26T23:59:04.852Z,91.00
